Terminal Aerodrome Forecast
Issued by NWS

Home | Current Version | Previous Version | Text Only | Print | Product List | Glossary On
Versions: 1 2 3 4 5 6 7 8 9 10 11 12 13 14 15 16 17 18 19
000
FTUS42 KTAE 231720
TAFVLD
TAF
KVLD 231720Z 2318/2418 07009KT P6SM VCTS BKN040CB
      TEMPO 2319/2322 5SM TSRA BKN035CB
     FM240000 06005KT P6SM SCT050=

USA.gov is the U.S. government's official web portal to all federal, state and local government web resources and services.